createdAt,value
2017-07-21T00:00:21.495Z,100180
2017-07-21T00:01:21.273Z,100177
2017-07-21T00:02:22.240Z,100183
2017-07-21T00:03:23.121Z,100180
2017-07-21T00:04:22.299Z,100183
2017-07-21T00:05:21.521Z,100182
2017-07-21T00:06:22.771Z,100180
2017-07-21T00:07:22.470Z,100182
2017-07-21T00:08:21.648Z,100179
2017-07-21T00:09:22.574Z,100173
2017-07-21T00:10:22.640Z,100182
2017-07-21T00:11:23.539Z,100184
2017-07-21T00:12:22.190Z,100181
2017-07-21T00:13:21.882Z,100174
2017-07-21T00:14:23.494Z,100177
2017-07-21T00:15:23.705Z,100179
2017-07-21T00:16:23.781Z,100183
2017-07-21T00:17:22.975Z,100181
2017-07-21T00:18:22.359Z,100179
2017-07-21T00:19:22.168Z,100178
2017-07-21T00:20:23.227Z,100182
2017-07-21T00:21:22.255Z,100180
2017-07-21T00:22:22.246Z,100181
2017-07-21T00:23:24.119Z,100182
2017-07-21T00:24:24.329Z,100182
2017-07-21T00:25:23.493Z,100172
2017-07-21T00:26:24.228Z,100183
2017-07-21T00:27:22.595Z,100182
2017-07-21T00:28:22.591Z,100186
2017-07-21T00:29:24.385Z,100187
2017-07-21T00:30:24.028Z,100186
2017-07-21T00:31:22.750Z,100186
2017-07-21T00:32:22.834Z,100187
2017-07-21T00:33:24.702Z,100182
2017-07-21T00:34:23.023Z,100185
2017-07-21T00:35:22.983Z,100190
2017-07-21T00:36:23.410Z,100186
2017-07-21T00:37:23.187Z,100186
2017-07-21T00:38:24.261Z,100188
2017-07-21T00:39:24.327Z,100187
2017-07-21T00:40:23.341Z,100187
2017-07-21T00:41:24.334Z,100187
2017-07-21T00:42:25.563Z,100190
2017-07-21T00:43:23.571Z,100191
2017-07-21T00:44:23.485Z,100197
2017-07-21T00:45:25.274Z,100189
2017-07-21T00:46:23.657Z,100187
2017-07-21T00:47:23.757Z,100188
2017-07-21T00:48:23.933Z,100188
2017-07-21T00:49:25.417Z,100191
2017-07-21T00:50:24.890Z,100190
2017-07-21T00:51:23.836Z,100192
2017-07-21T00:52:25.699Z,100187
2017-07-21T00:53:25.633Z,100186
2017-07-21T00:54:26.067Z,100190
2017-07-21T00:55:24.126Z,100186
2017-07-21T00:56:24.179Z,100189
2017-07-21T00:57:24.145Z,100194
2017-07-21T00:58:24.320Z,100193
2017-07-21T00:59:24.262Z,100184
2017-07-21T01:00:24.640Z,100189
2017-07-21T01:01:26.124Z,100193
2017-07-21T01:02:26.159Z,100194
2017-07-21T01:03:24.454Z,100190
2017-07-21T01:04:24.465Z,100190
2017-07-21T01:05:25.518Z,100182
2017-07-21T01:06:26.015Z,100191
2017-07-21T01:07:26.505Z,100192
2017-07-21T01:08:24.761Z,100184
2017-07-21T01:09:24.752Z,100192
2017-07-21T01:10:25.856Z,100196
2017-07-21T01:11:24.893Z,100198
2017-07-21T01:12:25.328Z,100190
2017-07-21T01:13:25.045Z,100195
2017-07-21T01:14:25.143Z,100197
2017-07-21T01:15:26.301Z,100198
2017-07-21T01:16:25.264Z,100192
2017-07-21T01:17:25.431Z,100196
2017-07-21T01:18:25.746Z,100199
2017-07-21T01:19:26.513Z,100201
2017-07-21T01:20:27.256Z,100205
2017-07-21T01:21:26.550Z,100200
2017-07-21T01:22:26.443Z,100203
2017-07-21T01:23:25.580Z,100194
2017-07-21T01:24:25.913Z,100196
2017-07-21T01:25:25.800Z,100201
2017-07-21T01:26:26.692Z,100194
2017-07-21T01:27:27.434Z,100185
2017-07-21T01:28:25.805Z,100194
2017-07-21T01:29:27.501Z,100193
2017-07-21T01:30:26.239Z,100187
2017-07-21T01:31:26.005Z,100190
2017-07-21T01:32:27.715Z,100196
2017-07-21T01:33:27.678Z,100186
2017-07-21T01:34:27.055Z,100197
2017-07-21T01:35:27.705Z,100199
2017-07-21T01:36:26.336Z,100191
2017-07-21T01:37:26.227Z,100193
2017-07-21T01:38:27.282Z,100193
2017-07-21T01:39:26.193Z,100194
2017-07-21T01:40:27.163Z,100193
2017-07-21T01:41:26.393Z,100194
2017-07-21T01:42:26.574Z,100199
2017-07-21T01:43:27.285Z,100191
2017-07-21T01:44:26.360Z,100195
2017-07-21T01:45:28.153Z,100188
2017-07-21T01:46:26.393Z,100193
2017-07-21T01:47:26.596Z,100194
2017-07-21T01:48:26.913Z,100192
2017-07-21T01:49:27.583Z,100192
2017-07-21T01:50:28.384Z,100198
2017-07-21T01:51:27.839Z,100192
2017-07-21T01:52:26.824Z,100197
2017-07-21T01:53:26.860Z,100199
2017-07-21T01:54:28.896Z,100202
2017-07-21T01:55:26.992Z,100199
2017-07-21T01:56:26.969Z,100197
2017-07-21T01:57:28.839Z,100200
2017-07-21T01:58:28.800Z,100200
2017-07-21T01:59:27.282Z,100200
2017-07-21T02:00:28.603Z,100204
2017-07-21T02:01:28.978Z,100199
2017-07-21T02:02:27.338Z,100200
2017-07-21T02:03:28.526Z,100202
2017-07-21T02:04:27.561Z,100200
2017-07-21T02:05:29.305Z,100201
2017-07-21T02:06:27.808Z,100202
2017-07-21T02:07:27.736Z,100202
2017-07-21T02:08:28.783Z,100200
2017-07-21T02:09:27.833Z,100196
2017-07-21T02:10:28.862Z,100191
2017-07-21T02:11:29.654Z,100195
2017-07-21T02:12:29.304Z,100195
2017-07-21T02:13:27.975Z,100194
2017-07-21T02:14:29.085Z,100190
2017-07-21T02:15:29.072Z,100190
2017-07-21T02:16:28.345Z,100194
2017-07-21T02:17:29.404Z,100184
2017-07-21T02:18:29.580Z,100194
2017-07-21T02:19:28.446Z,100191
2017-07-21T02:20:31.151Z,100199
2017-07-21T02:21:28.694Z,100192
2017-07-21T02:22:30.467Z,100198
2017-07-21T02:23:29.349Z,100194
2017-07-21T02:24:30.660Z,100194
2017-07-21T02:25:28.813Z,100199
2017-07-21T02:26:29.990Z,100196
2017-07-21T02:27:29.062Z,100200
2017-07-21T02:28:28.968Z,100188
2017-07-21T02:29:29.150Z,100198
2017-07-21T02:30:29.469Z,100198
2017-07-21T02:31:30.403Z,100198
2017-07-21T02:32:31.084Z,100205
2017-07-21T02:33:29.421Z,100199
2017-07-21T02:34:31.099Z,100207
2017-07-21T02:35:30.327Z,100206
2017-07-21T02:36:29.634Z,100207
2017-07-21T02:37:29.475Z,100206
2017-07-21T02:38:30.524Z,100206
2017-07-21T02:39:31.258Z,100206
2017-07-21T02:40:29.618Z,100209
2017-07-21T02:41:29.688Z,100207
2017-07-21T02:42:30.940Z,100212
2017-07-21T02:43:30.792Z,100217
2017-07-21T02:44:31.603Z,100218
2017-07-21T02:45:30.901Z,100216
2017-07-21T02:46:31.565Z,100220
2017-07-21T02:47:32.323Z,100223
2017-07-21T02:48:30.398Z,100222
2017-07-21T02:49:30.184Z,100221
2017-07-21T02:50:30.325Z,100224
2017-07-21T02:51:30.284Z,100217
2017-07-21T02:52:32.029Z,100223
2017-07-21T02:53:30.427Z,100222
2017-07-21T02:54:32.110Z,100223
2017-07-21T02:55:32.012Z,100222
2017-07-21T02:56:32.086Z,100224
2017-07-21T02:57:30.426Z,100221
2017-07-21T02:58:32.022Z,100225
2017-07-21T02:59:30.497Z,100228
2017-07-21T03:00:30.712Z,100232
2017-07-21T03:01:30.669Z,100228
2017-07-21T03:02:30.566Z,100233
2017-07-21T03:03:32.448Z,100229
2017-07-21T03:04:30.699Z,100231
2017-07-21T03:05:30.799Z,100230
2017-07-21T03:06:32.816Z,100229
2017-07-21T03:07:31.750Z,100228
2017-07-21T03:08:30.836Z,100230
2017-07-21T03:09:31.900Z,100232
2017-07-21T03:10:32.728Z,100222
2017-07-21T03:11:30.970Z,100232
2017-07-21T03:12:32.925Z,100228
2017-07-21T03:13:31.140Z,100235
2017-07-21T03:14:32.881Z,100227
2017-07-21T03:15:32.234Z,100236
2017-07-21T03:16:31.295Z,100237
2017-07-21T03:17:31.261Z,100235
2017-07-21T03:18:31.637Z,100232
2017-07-21T03:19:33.158Z,100235
2017-07-21T03:20:31.469Z,100226
2017-07-21T03:21:31.565Z,100235
2017-07-21T03:22:33.283Z,100236
2017-07-21T03:23:31.539Z,100235
2017-07-21T03:24:31.872Z,100238
2017-07-21T03:25:31.783Z,100237
2017-07-21T03:26:31.869Z,100240
2017-07-21T03:27:32.804Z,100236
2017-07-21T03:28:32.881Z,100238
2017-07-21T03:29:33.697Z,100227
2017-07-21T03:30:32.495Z,100239
2017-07-21T03:31:33.158Z,100234
2017-07-21T03:32:32.078Z,100240
2017-07-21T03:33:32.236Z,100235
2017-07-21T03:34:32.169Z,100238
2017-07-21T03:35:32.249Z,100241
2017-07-21T03:36:32.609Z,100239
2017-07-21T03:37:34.160Z,100242
2017-07-21T03:38:32.548Z,100248
2017-07-21T03:39:32.553Z,100248
2017-07-21T03:40:32.672Z,100247
2017-07-21T03:41:32.648Z,100240
2017-07-21T03:42:33.998Z,100247
2017-07-21T03:43:32.685Z,100250
2017-07-21T03:44:32.750Z,100250
2017-07-21T03:45:32.766Z,100247
2017-07-21T03:46:32.850Z,100253
2017-07-21T03:47:32.801Z,100253
2017-07-21T03:48:33.263Z,100253
2017-07-21T03:49:33.009Z,100251
2017-07-21T03:50:32.957Z,100251
2017-07-21T03:51:33.080Z,100254
2017-07-21T03:52:34.806Z,100250
2017-07-21T03:53:33.087Z,100255
2017-07-21T03:54:35.061Z,100253
2017-07-21T03:55:33.160Z,100256
2017-07-21T03:56:33.326Z,100257
2017-07-21T03:57:34.324Z,100260
2017-07-21T03:58:33.368Z,100255
2017-07-21T03:59:33.315Z,100259
2017-07-21T04:00:35.338Z,100262
2017-07-21T04:01:33.531Z,100259
2017-07-21T04:02:35.169Z,100260
2017-07-21T04:03:35.255Z,100261
2017-07-21T04:04:34.603Z,100263
2017-07-21T04:05:33.734Z,100261
2017-07-21T04:06:34.158Z,100260
2017-07-21T04:07:35.434Z,100260
2017-07-21T04:08:35.472Z,100256
2017-07-21T04:09:35.532Z,100261
2017-07-21T04:10:35.582Z,100265
2017-07-21T04:11:34.038Z,100265
2017-07-21T04:12:35.961Z,100262
2017-07-21T04:13:35.781Z,100264
2017-07-21T04:14:34.280Z,100262
2017-07-21T04:15:34.342Z,100260
2017-07-21T04:16:34.290Z,100265
2017-07-21T04:17:35.450Z,100266
2017-07-21T04:18:35.790Z,100258
2017-07-21T04:19:35.616Z,100264
2017-07-21T04:20:34.705Z,100266
2017-07-21T04:21:35.618Z,100266
2017-07-21T04:22:35.652Z,100265
2017-07-21T04:23:34.697Z,100263
2017-07-21T04:24:35.981Z,100256
2017-07-21T04:25:34.756Z,100263
2017-07-21T04:26:35.740Z,100268
2017-07-21T04:27:35.919Z,100260
2017-07-21T04:28:34.864Z,100267
2017-07-21T04:29:35.843Z,100265
2017-07-21T04:30:35.310Z,100274
2017-07-21T04:31:36.643Z,100262
2017-07-21T04:32:35.102Z,100270
2017-07-21T04:33:36.832Z,100271
2017-07-21T04:34:36.200Z,100265
2017-07-21T04:35:36.113Z,100267
2017-07-21T04:36:35.574Z,100264
2017-07-21T04:37:35.233Z,100266
2017-07-21T04:38:35.886Z,100269
2017-07-21T04:39:35.390Z,100259
2017-07-21T04:40:36.543Z,100269
2017-07-21T04:41:36.575Z,100268
2017-07-21T04:42:36.796Z,100270
2017-07-21T04:43:36.667Z,100264
2017-07-21T04:44:36.578Z,100275
2017-07-21T04:45:37.425Z,100270
2017-07-21T04:46:35.796Z,100273
2017-07-21T04:47:36.644Z,100263
2017-07-21T04:48:36.154Z,100280
2017-07-21T04:49:35.815Z,100273
2017-07-21T04:50:35.798Z,100271
2017-07-21T04:51:35.894Z,100273
2017-07-21T04:52:37.670Z,100274
2017-07-21T04:53:35.972Z,100273
2017-07-21T04:54:37.763Z,100273
2017-07-21T04:55:37.029Z,100267
2017-07-21T04:56:36.094Z,100274
2017-07-21T04:57:36.105Z,100272
2017-07-21T04:58:36.221Z,100274
2017-07-21T04:59:36.282Z,100270
2017-07-21T05:00:36.325Z,100276
2017-07-21T05:01:36.506Z,100276
2017-07-21T05:02:36.564Z,100276
2017-07-21T05:03:38.278Z,100268
2017-07-21T05:04:38.229Z,100268
2017-07-21T05:05:36.738Z,100266
2017-07-21T05:06:36.662Z,100280
2017-07-21T05:07:38.351Z,100285
2017-07-21T05:08:36.708Z,100286
2017-07-21T05:09:36.738Z,100287
2017-07-21T05:10:37.764Z,100288
2017-07-21T05:11:37.792Z,100283
2017-07-21T05:12:38.622Z,100293
2017-07-21T05:13:37.862Z,100286
2017-07-21T05:14:36.905Z,100301
2017-07-21T05:15:38.713Z,100293
2017-07-21T05:16:36.947Z,100300
2017-07-21T05:17:37.968Z,100300
2017-07-21T05:18:37.095Z,100304
2017-07-21T05:19:38.119Z,100298
2017-07-21T05:20:37.265Z,100294
2017-07-21T05:21:37.440Z,100304
2017-07-21T05:22:37.217Z,100304
2017-07-21T05:23:38.258Z,100303
2017-07-21T05:24:38.439Z,100301
2017-07-21T05:25:39.193Z,100300
2017-07-21T05:26:39.135Z,100301
2017-07-21T05:27:38.514Z,100309
2017-07-21T05:28:37.543Z,100309
2017-07-21T05:29:39.410Z,100305
2017-07-21T05:30:38.633Z,100304
2017-07-21T05:31:37.686Z,100302
2017-07-21T05:32:37.725Z,100300
2017-07-21T05:33:37.881Z,100295
2017-07-21T05:34:38.863Z,100299
2017-07-21T05:35:39.599Z,100302
2017-07-21T05:36:38.108Z,100299
2017-07-21T05:37:39.991Z,100303
2017-07-21T05:38:39.047Z,100301
2017-07-21T05:39:38.180Z,100301
2017-07-21T05:40:39.129Z,100308
2017-07-21T05:41:38.262Z,100305
2017-07-21T05:42:40.112Z,100294
2017-07-21T05:43:40.068Z,100305
2017-07-21T05:44:38.559Z,100298
2017-07-21T05:45:39.460Z,100307
2017-07-21T05:46:38.591Z,100311
2017-07-21T05:47:39.568Z,100304
2017-07-21T05:48:38.687Z,100310
2017-07-21T05:49:39.413Z,100306
2017-07-21T05:50:39.792Z,100310
2017-07-21T05:51:38.944Z,100313
2017-07-21T05:52:38.983Z,100312
2017-07-21T05:53:40.204Z,100307
2017-07-21T05:54:40.049Z,100309
2017-07-21T05:55:40.094Z,100314
2017-07-21T05:56:40.772Z,100312
2017-07-21T05:57:39.172Z,100310
2017-07-21T05:58:39.335Z,100312
2017-07-21T05:59:40.957Z,100308
2017-07-21T06:00:39.290Z,100305
2017-07-21T06:01:41.144Z,100301
2017-07-21T06:02:39.522Z,100317
2017-07-21T06:03:39.571Z,100313
2017-07-21T06:04:41.318Z,100316
2017-07-21T06:05:40.562Z,100310
2017-07-21T06:06:41.437Z,100316
2017-07-21T06:07:40.634Z,100321
2017-07-21T06:08:41.370Z,100322
2017-07-21T06:09:39.765Z,100323
2017-07-21T06:10:40.957Z,100317
2017-07-21T06:11:39.926Z,100315
2017-07-21T06:12:40.077Z,100303
2017-07-21T06:13:40.083Z,100312
2017-07-21T06:14:40.133Z,100312
2017-07-21T06:15:42.730Z,100317
2017-07-21T06:16:40.130Z,100318
2017-07-21T06:17:41.114Z,100321
2017-07-21T06:18:40.306Z,100307
2017-07-21T06:19:40.346Z,100318
2017-07-21T06:20:42.044Z,100318
2017-07-21T06:21:41.346Z,100317
2017-07-21T06:22:41.271Z,100320
2017-07-21T06:23:42.192Z,100316
2017-07-21T06:24:40.421Z,100321
2017-07-21T06:25:40.438Z,100319
2017-07-21T06:26:40.591Z,100315
2017-07-21T06:27:41.176Z,100323
2017-07-21T06:28:41.532Z,100317
2017-07-21T06:29:40.481Z,100322
2017-07-21T06:30:41.468Z,100323
2017-07-21T06:31:40.512Z,100320
2017-07-21T06:32:42.356Z,100319
2017-07-21T06:33:41.669Z,100318
2017-07-21T06:34:42.245Z,100322
2017-07-21T06:35:40.597Z,100326
2017-07-21T06:36:40.606Z,100323
2017-07-21T06:37:42.006Z,100322
2017-07-21T06:38:42.442Z,100320
2017-07-21T06:39:42.993Z,100324
2017-07-21T06:40:41.757Z,100322
2017-07-21T06:41:40.934Z,100320
2017-07-21T06:42:41.072Z,100323
2017-07-21T06:43:42.009Z,100321
2017-07-21T06:44:41.153Z,100326
2017-07-21T06:45:42.889Z,100327
2017-07-21T06:46:42.825Z,100323
2017-07-21T06:47:42.235Z,100331
2017-07-21T06:48:41.274Z,100326
2017-07-21T06:49:41.346Z,100318
2017-07-21T06:50:43.544Z,100327
2017-07-21T06:51:43.078Z,100323
2017-07-21T06:52:42.352Z,100324
2017-07-21T06:53:42.420Z,100330
2017-07-21T06:54:41.510Z,100332
2017-07-21T06:55:42.628Z,100334
2017-07-21T06:56:41.731Z,100330
2017-07-21T06:57:42.671Z,100332
2017-07-21T06:58:41.802Z,100335
2017-07-21T06:59:43.028Z,100336
2017-07-21T07:00:42.899Z,100339
2017-07-21T07:01:42.874Z,100338
2017-07-21T07:02:41.951Z,100339
2017-07-21T07:03:43.344Z,100342
2017-07-21T07:04:43.792Z,100339
2017-07-21T07:05:43.182Z,100342
2017-07-21T07:06:42.219Z,100339
2017-07-21T07:07:42.329Z,100335
2017-07-21T07:08:45.271Z,100345
2017-07-21T07:09:44.135Z,100349
2017-07-21T07:10:42.531Z,100345
2017-07-21T07:11:42.543Z,100343
2017-07-21T07:12:44.313Z,100344
2017-07-21T07:13:44.804Z,100343
2017-07-21T07:14:43.135Z,100345
2017-07-21T07:15:43.600Z,100346
2017-07-21T07:16:43.815Z,100339
2017-07-21T07:17:44.427Z,100338
2017-07-21T07:18:43.738Z,100339
2017-07-21T07:19:45.143Z,100339
2017-07-21T07:20:44.614Z,100344
2017-07-21T07:21:43.313Z,100341
2017-07-21T07:22:44.756Z,100338
2017-07-21T07:23:43.131Z,100335
2017-07-21T07:24:44.143Z,100335
2017-07-21T07:25:44.777Z,100327
2017-07-21T07:26:44.809Z,100322
2017-07-21T07:27:44.918Z,100329
2017-07-21T07:28:43.353Z,100331
2017-07-21T07:29:43.422Z,100330
2017-07-21T07:30:44.497Z,100326
2017-07-21T07:31:44.505Z,100328
2017-07-21T07:32:43.587Z,100327
2017-07-21T07:33:43.611Z,100330
2017-07-21T07:34:44.699Z,100337
2017-07-21T07:35:43.701Z,100339
2017-07-21T07:36:43.706Z,100338
2017-07-21T07:37:45.527Z,100336
2017-07-21T07:38:44.874Z,100336
2017-07-21T07:39:43.965Z,100337
2017-07-21T07:40:45.637Z,100340
2017-07-21T07:41:45.008Z,100328
2017-07-21T07:42:45.695Z,100336
2017-07-21T07:43:44.334Z,100334
2017-07-21T07:44:44.126Z,100332
2017-07-21T07:45:44.084Z,100333
2017-07-21T07:46:45.867Z,100326
2017-07-21T07:47:45.840Z,100330
2017-07-21T07:48:44.235Z,100332
2017-07-21T07:49:46.118Z,100331
2017-07-21T07:50:44.425Z,100320
2017-07-21T07:51:45.182Z,100329
2017-07-21T07:52:45.670Z,100326
2017-07-21T07:53:45.582Z,100328
2017-07-21T07:54:46.390Z,100328
2017-07-21T07:55:45.361Z,100329
2017-07-21T07:56:44.852Z,100326
2017-07-21T07:57:46.449Z,100325
2017-07-21T07:58:45.324Z,100330
2017-07-21T07:59:44.904Z,100324
2017-07-21T08:00:46.778Z,100325
2017-07-21T08:01:44.938Z,100326
2017-07-21T08:02:44.985Z,100324
2017-07-21T08:03:46.081Z,100324
2017-07-21T08:04:45.188Z,100324
2017-07-21T08:05:45.222Z,100323
2017-07-21T08:06:45.223Z,100316
2017-07-21T08:07:46.248Z,100323
2017-07-21T08:08:45.368Z,100325
2017-07-21T08:09:46.447Z,100317
2017-07-21T08:10:47.092Z,100326
2017-07-21T08:11:45.478Z,100327
2017-07-21T08:12:47.153Z,100325
2017-07-21T08:13:45.614Z,100316
2017-07-21T08:14:47.280Z,100324
2017-07-21T08:15:47.404Z,100319
2017-07-21T08:16:46.604Z,100323
2017-07-21T08:17:47.348Z,100323
2017-07-21T08:18:46.547Z,100323
2017-07-21T08:19:45.837Z,100320
2017-07-21T08:20:45.955Z,100320
2017-07-21T08:21:47.739Z,100321
2017-07-21T08:22:48.137Z,100309
2017-07-21T08:23:47.634Z,100312
2017-07-21T08:24:47.203Z,100318
2017-07-21T08:25:46.174Z,100322
2017-07-21T08:26:46.894Z,100321
2017-07-21T08:27:47.362Z,100319
2017-07-21T08:28:48.112Z,100320
2017-07-21T08:29:47.388Z,100324
2017-07-21T08:30:49.240Z,100321
2017-07-21T08:31:46.599Z,100322
2017-07-21T08:32:48.232Z,100317
2017-07-21T08:33:48.308Z,100323
2017-07-21T08:34:47.684Z,100325
2017-07-21T08:35:47.832Z,100317
2017-07-21T08:36:46.875Z,100325
2017-07-21T08:37:49.261Z,100328
2017-07-21T08:38:47.501Z,100321
2017-07-21T08:39:46.954Z,100311
2017-07-21T08:40:47.716Z,100325
2017-07-21T08:41:48.703Z,100322
2017-07-21T08:42:46.959Z,100324
2017-07-21T08:43:48.791Z,100326
2017-07-21T08:44:47.364Z,100327
2017-07-21T08:45:48.632Z,100315
2017-07-21T08:46:48.312Z,100324
2017-07-21T08:47:47.358Z,100323
2017-07-21T08:48:47.394Z,100326
2017-07-21T08:49:50.557Z,100326
2017-07-21T08:50:48.723Z,100325
2017-07-21T08:51:48.858Z,100315
2017-07-21T08:52:48.237Z,100324
2017-07-21T08:53:48.471Z,100324
2017-07-21T08:54:47.704Z,100323
2017-07-21T08:55:49.131Z,100344
2017-07-21T08:56:47.767Z,100315
2017-07-21T08:57:49.516Z,100317
2017-07-21T08:58:47.800Z,100322
2017-07-21T08:59:49.435Z,100323
2017-07-21T09:00:48.594Z,100320
2017-07-21T09:01:48.694Z,100315
2017-07-21T09:02:48.963Z,100315
2017-07-21T09:03:49.417Z,100317
2017-07-21T09:04:49.782Z,100308
2017-07-21T09:05:48.140Z,100317
2017-07-21T09:06:48.418Z,100315
2017-07-21T09:07:51.324Z,100319
2017-07-21T09:08:50.626Z,100314
2017-07-21T09:09:50.551Z,100310
2017-07-21T09:10:49.323Z,100311
2017-07-21T09:11:50.072Z,100301
2017-07-21T09:12:49.388Z,100309
2017-07-21T09:13:50.264Z,100308
2017-07-21T09:14:49.591Z,100316
2017-07-21T09:15:49.646Z,100317
2017-07-21T09:16:48.767Z,100308
2017-07-21T09:17:49.279Z,100318
2017-07-21T09:18:51.679Z,100316
2017-07-21T09:19:48.783Z,100310
2017-07-21T09:20:51.057Z,100304
2017-07-21T09:21:52.746Z,100310
2017-07-21T09:22:50.469Z,100308
2017-07-21T09:23:49.152Z,100307
2017-07-21T09:24:50.389Z,100299
2017-07-21T09:25:49.079Z,100307
2017-07-21T09:26:49.094Z,100301
2017-07-21T09:27:50.804Z,100304
2017-07-21T09:28:51.005Z,100309
2017-07-21T09:29:51.321Z,100305
2017-07-21T09:30:52.386Z,100301
2017-07-21T09:31:50.372Z,100300
2017-07-21T09:32:51.688Z,100291
2017-07-21T09:33:50.305Z,100292
2017-07-21T09:34:49.474Z,100299
2017-07-21T09:35:50.758Z,100297
2017-07-21T09:36:51.192Z,100300
2017-07-21T09:37:51.234Z,100298
2017-07-21T09:38:50.425Z,100296
2017-07-21T09:39:49.765Z,100298
2017-07-21T09:40:50.844Z,100295
2017-07-21T09:41:50.452Z,100296
2017-07-21T09:42:50.012Z,100287
2017-07-21T09:43:50.096Z,100285
2017-07-21T09:44:51.048Z,100288
2017-07-21T09:45:51.630Z,100286
2017-07-21T09:46:51.186Z,100291
2017-07-21T09:47:51.283Z,100285
2017-07-21T09:48:50.929Z,100282
2017-07-21T09:49:52.301Z,100286
2017-07-21T09:50:51.983Z,100284
2017-07-21T09:51:54.279Z,100286
2017-07-21T09:52:52.061Z,100279
2017-07-21T09:53:51.145Z,100283
2017-07-21T09:54:51.338Z,100284
2017-07-21T09:55:52.328Z,100281
2017-07-21T09:56:51.389Z,100281
2017-07-21T09:57:52.402Z,100290
2017-07-21T09:58:52.549Z,100288
2017-07-21T09:59:51.874Z,100283
2017-07-21T10:00:52.110Z,100285
2017-07-21T10:01:52.079Z,100279
2017-07-21T10:02:54.544Z,100278
2017-07-21T10:03:53.816Z,100281
2017-07-21T10:04:51.745Z,100280
2017-07-21T10:05:52.210Z,100278
2017-07-21T10:06:52.897Z,100277
2017-07-21T10:07:52.324Z,100278
2017-07-21T10:08:51.551Z,100281
2017-07-21T10:09:53.864Z,100269
2017-07-21T10:10:52.080Z,100273
2017-07-21T10:11:51.440Z,100265
2017-07-21T10:12:52.932Z,100271
2017-07-21T10:13:51.619Z,100269
2017-07-21T10:14:52.398Z,100272
2017-07-21T10:15:52.933Z,100271
2017-07-21T10:16:52.779Z,100267
2017-07-21T10:17:54.283Z,100272
2017-07-21T10:18:53.037Z,100269
2017-07-21T10:19:52.927Z,100259
2017-07-21T10:20:55.404Z,100267
2017-07-21T10:21:54.942Z,100266
2017-07-21T10:22:52.755Z,100265
2017-07-21T10:23:52.173Z,100266
2017-07-21T10:24:53.947Z,100263
2017-07-21T10:25:52.324Z,100257
2017-07-21T10:26:52.354Z,100269
2017-07-21T10:27:53.526Z,100267
2017-07-21T10:28:52.309Z,100268
2017-07-21T10:29:53.992Z,100261
2017-07-21T10:30:54.296Z,100260
2017-07-21T10:31:52.420Z,100260
2017-07-21T10:32:53.449Z,100256
2017-07-21T10:33:54.112Z,100261
2017-07-21T10:34:52.418Z,100262
2017-07-21T10:35:53.131Z,100253
2017-07-21T10:36:54.305Z,100259
2017-07-21T10:37:52.506Z,100260
2017-07-21T10:38:52.517Z,100263
2017-07-21T10:39:53.514Z,100258
2017-07-21T10:40:53.249Z,100248
2017-07-21T10:41:54.264Z,100254
2017-07-21T10:42:53.704Z,100252
2017-07-21T10:43:53.274Z,100256
2017-07-21T10:44:53.688Z,100245
2017-07-21T10:45:52.632Z,100255
2017-07-21T10:46:54.859Z,100253
2017-07-21T10:47:53.601Z,100251
2017-07-21T10:48:54.374Z,100246
2017-07-21T10:49:54.361Z,100244
2017-07-21T10:50:52.782Z,100245
2017-07-21T10:51:53.624Z,100247
2017-07-21T10:52:52.890Z,100245
2017-07-21T10:53:53.448Z,100244
2017-07-21T10:54:54.720Z,100250
2017-07-21T10:55:54.208Z,100243
2017-07-21T10:56:54.816Z,100240
2017-07-21T10:57:56.924Z,100238
2017-07-21T10:58:53.877Z,100238
2017-07-21T10:59:53.950Z,100234
2017-07-21T11:00:57.391Z,100231
2017-07-21T11:01:58.960Z,100230
2017-07-21T11:03:00.335Z,100227
2017-07-21T11:03:56.621Z,100223
2017-07-21T11:04:57.866Z,100213
2017-07-21T11:05:55.995Z,100225
2017-07-21T11:06:56.136Z,100228
2017-07-21T11:07:59.042Z,100224
2017-07-21T11:08:55.264Z,100221
2017-07-21T11:09:54.543Z,100227
2017-07-21T11:10:55.962Z,100228
2017-07-21T11:11:54.668Z,100221
2017-07-21T11:12:55.430Z,100229
2017-07-21T11:13:55.075Z,100229
2017-07-21T11:14:53.966Z,100228
2017-07-21T11:15:57.573Z,100230
2017-07-21T11:16:55.065Z,100223
2017-07-21T11:17:54.087Z,100222
2017-07-21T11:18:54.072Z,100221
2017-07-21T11:19:55.184Z,100213
2017-07-21T11:20:55.194Z,100220
2017-07-21T11:21:54.187Z,100221
2017-07-21T11:22:54.228Z,100212
2017-07-21T11:23:55.068Z,100216
2017-07-21T11:24:55.513Z,100215
2017-07-21T11:25:57.646Z,100213
2017-07-21T11:26:54.290Z,100214
2017-07-21T11:27:57.698Z,100214
2017-07-21T11:28:56.769Z,100207
2017-07-21T11:29:56.061Z,100206
2017-07-21T11:30:56.757Z,100196
2017-07-21T11:31:54.621Z,100203
2017-07-21T11:32:54.613Z,100206
2017-07-21T11:33:56.343Z,100203
2017-07-21T11:34:55.519Z,100203
2017-07-21T11:35:56.570Z,100202
2017-07-21T11:36:54.953Z,100206
2017-07-21T11:37:54.921Z,100204
2017-07-21T11:38:56.419Z,100204
2017-07-21T11:39:54.989Z,100193
2017-07-21T11:40:56.142Z,100196
2017-07-21T11:41:56.852Z,100200
2017-07-21T11:42:56.813Z,100192
2017-07-21T11:43:55.801Z,100195
2017-07-21T11:44:55.994Z,100200
2017-07-21T11:45:56.828Z,100197
2017-07-21T11:46:56.588Z,100197
2017-07-21T11:47:55.867Z,100197
2017-07-21T11:48:55.829Z,100196
2017-07-21T11:49:56.081Z,100194
2017-07-21T11:50:55.311Z,100191
2017-07-21T11:51:57.016Z,100180
2017-07-21T11:52:57.732Z,100190
2017-07-21T11:53:56.549Z,100188
2017-07-21T11:54:55.622Z,100186
2017-07-21T11:55:56.196Z,100186
2017-07-21T11:56:56.613Z,100184
2017-07-21T11:57:57.247Z,100188
2017-07-21T11:58:57.170Z,100185
2017-07-21T11:59:57.414Z,100193
2017-07-21T12:00:55.790Z,100189
2017-07-21T12:01:56.769Z,100187
2017-07-21T12:02:58.945Z,100185
2017-07-21T12:03:55.873Z,100192
2017-07-21T12:04:58.890Z,100188
2017-07-21T12:05:58.251Z,100184
2017-07-21T12:06:56.699Z,100189
2017-07-21T12:07:57.834Z,100184
2017-07-21T12:08:57.014Z,100183
2017-07-21T12:09:56.211Z,100184
2017-07-21T12:10:59.051Z,100184
2017-07-21T12:11:57.644Z,100172
2017-07-21T12:12:57.004Z,100182
2017-07-21T12:13:56.814Z,100169
2017-07-21T12:14:56.239Z,100174
2017-07-21T12:15:58.184Z,100174
2017-07-21T12:16:59.773Z,100167
2017-07-21T12:17:58.499Z,100174
2017-07-21T12:19:01.578Z,100177
2017-07-21T12:20:03.434Z,100163
2017-07-21T12:21:02.140Z,100171
2017-07-21T12:21:59.341Z,100170
2017-07-21T12:22:59.002Z,100174
2017-07-21T12:24:01.450Z,100169
2017-07-21T12:24:56.741Z,100156
2017-07-21T12:25:59.602Z,100168
2017-07-21T12:27:01.907Z,100163
2017-07-21T12:28:00.971Z,100168
2017-07-21T12:28:57.479Z,100169